ENHV

Valan Airport

Honningsvåg, Norway
METAR ENHV 142150Z 24018G31KT 9999 FEW014 SCT035 BKN046 06/00 Q1023
Observed Flight Rules
Dec-14 @ 21:50 UTC (10 hours ago) Visual Flight Rules
Wind Visibility Clouds
240° at 18 knots
 Gusting to 31 knots
10,000+ meters
  • Few at 1,400' AGL
  • Scattered at 3,500' AGL
  • Broken at 4,600' AGL
Temperatures Readings
Current 6°C / 43°F
Dewpoint 0°C / 32°F
Humidity 66%
Altimeter 30.21" Hg
Pressure 1023 hPa
Elevation 14
METAR ENHV 142150Z 24018G31KT 9999 FEW014 SCT035 BKN046 06/00 Q1023
Observed Flight Rules
Dec-14 @ 21:50 UTC
(10 hours ago)
VFR
Wind Visibility
240° at 18 knots
 Gusting to 31 knots
10,000+ meters
Clouds
  • Few at 1,400' AGL
  • Scattered at 3,500' AGL
  • Broken at 4,600' AGL
Temperature Dewpoint
6°C / 43°F 0°C / 32°F
Humidity Altimeter Pressure
66% 30.21" Hg 1023 hPa